Time;durP1;ratioP1;P1;durP2;ratioP2;P2;SDS_P1;SDS_P2;PMS_P1;PMS_P2;Temp;Humidity;BMP_temperature;BMP_pressure;BME280_temperature;BME280_humidity;BME280_pressure;Samples;Min_cycle;Max_cycle;Signal;HPM_P1;HPM_P2
2023/05/03 00:01:42;;;;;;;10.43;3.53;;;;;;;;;;4953346;29;20045;-85
2023/05/03 00:04:10;;;;;;;7.72;3.30;;;;;;;;;;4958369;28;20047;-86
2023/05/03 00:06:36;;;;;;;12.20;3.95;;;;;;;;;;4970111;28;20115;-88
2023/05/03 00:09:03;;;;;;;9.38;3.55;;;;;;;;;;4924153;29;20058;-87
2023/05/03 00:11:29;;;;;;;11.80;3.20;;;;;;;;;;4921499;29;20066;-87
2023/05/03 00:13:56;;;;;;;10.90;3.60;;;;;;;;;;4936896;29;20043;-87
2023/05/03 00:16:22;;;;;;;7.30;3.05;;;;;;;;;;4921899;29;20119;-86
2023/05/03 00:18:49;;;;;;;10.57;3.40;;;;;;;;;;4939833;29;20464;-87
2023/05/03 00:21:16;;;;;;;9.07;3.28;;;;;;;;;;4937667;29;20043;-86
2023/05/03 00:23:42;;;;;;;8.90;3.42;;;;;;;;;;4938654;29;20039;-86
2023/05/03 00:26:09;;;;;;;10.82;3.67;;;;;;;;;;4971013;28;20134;-84
2023/05/03 00:28:36;;;;;;;16.55;3.55;;;;;;;;;;4984751;28;20050;-86
2023/05/03 00:31:07;;;;;;;7.60;3.22;;;;;;;;;;4943202;29;20115;-87
2023/05/03 00:33:34;;;;;;;9.63;3.28;;;;;;;;;;4938351;29;20052;-87
2023/05/03 00:36:08;;;;;;;12.80;3.15;;;;;;;;;;4934927;29;20055;-85
2023/05/03 00:38:35;;;;;;;9.95;3.65;;;;;;;;;;4923152;29;20473;-87
2023/05/03 00:41:02;;;;;;;9.88;3.38;;;;;;;;;;4936490;29;20063;-86
2023/05/03 00:43:28;;;;;;;12.80;3.40;;;;;;;;;;4936850;29;20405;-87
2023/05/03 00:45:55;;;;;;;9.82;3.38;;;;;;;;;;4940134;28;20047;-86
2023/05/03 00:48:41;;;;;;;9.63;3.10;;;;;;;;;;4940559;28;20102;-85
2023/05/03 00:51:08;;;;;;;8.48;2.50;;;;;;;;;;4971211;28;20051;-86
2023/05/03 00:53:35;;;;;;;10.88;3.22;;;;;;;;;;4954893;28;20051;-86
2023/05/03 00:56:04;;;;;;;10.70;3.28;;;;;;;;;;4954809;28;20463;-88
2023/05/03 00:58:33;;;;;;;13.27;3.65;;;;;;;;;;4958115;28;20292;-88
2023/05/03 01:01:01;;;;;;;11.90;3.17;;;;;;;;;;4956525;28;20055;-88
2023/05/03 01:03:28;;;;;;;5.70;2.55;;;;;;;;;;4954897;28;20047;-87
2023/05/03 01:06:04;;;;;;;6.15;3.00;;;;;;;;;;4959699;28;20143;-86
2023/05/03 01:08:36;;;;;;;13.13;2.80;;;;;;;;;;4971713;28;20071;-86
2023/05/03 01:11:18;;;;;;;6.38;2.15;;;;;;;;;;4971048;28;20047;-88
2023/05/03 01:13:51;;;;;;;7.18;2.58;;;;;;;;;;4966666;28;20467;-86
2023/05/03 01:16:20;;;;;;;5.57;2.50;;;;;;;;;;4955489;28;20058;-86
2023/05/03 01:18:50;;;;;;;6.63;2.58;;;;;;;;;;4955712;28;20043;-88
2023/05/03 01:21:18;;;;;;;6.63;2.38;;;;;;;;;;4954750;28;20051;-87
2023/05/03 01:23:44;;;;;;;10.57;2.80;;;;;;;;;;4947387;28;20550;-86
2023/05/03 01:26:24;;;;;;;6.35;2.58;;;;;;;;;;4958340;28;20112;-87
2023/05/03 01:28:51;;;;;;;13.95;3.05;;;;;;;;;;4921699;29;20052;-85
2023/05/03 01:31:33;;;;;;;6.40;2.78;;;;;;;;;;4938162;29;20047;-85
2023/05/03 01:34:03;;;;;;;11.52;3.10;;;;;;;;;;4952406;28;20051;-85
2023/05/03 01:36:32;;;;;;;8.57;3.40;;;;;;;;;;4953515;28;20050;-86
2023/05/03 01:39:03;;;;;;;15.15;3.45;;;;;;;;;;4936712;28;20523;-84
2023/05/03 01:41:30;;;;;;;8.48;3.05;;;;;;;;;;4953273;28;20047;-84
2023/05/03 01:43:57;;;;;;;6.35;2.83;;;;;;;;;;4937127;28;20051;-85
2023/05/03 01:46:24;;;;;;;8.57;2.75;;;;;;;;;;4953474;28;20447;-87
2023/05/03 01:48:50;;;;;;;9.68;2.80;;;;;;;;;;4954303;28;20043;-86
2023/05/03 01:51:17;;;;;;;5.05;2.70;;;;;;;;;;4970594;28;20051;-87
2023/05/03 01:53:43;;;;;;;9.48;3.05;;;;;;;;;;4938414;28;20093;-85
2023/05/03 01:56:10;;;;;;;7.63;2.90;;;;;;;;;;4959460;28;20066;-86
2023/05/03 01:58:37;;;;;;;6.32;2.80;;;;;;;;;;4957073;28;20048;-86
2023/05/03 02:01:06;;;;;;;8.10;2.60;;;;;;;;;;4957587;28;20051;-84
2023/05/03 02:03:33;;;;;;;6.78;2.63;;;;;;;;;;4953154;28;20265;-85
2023/05/03 02:06:00;;;;;;;8.32;2.80;;;;;;;;;;4968975;28;20539;-85
2023/05/03 02:08:27;;;;;;;6.30;2.53;;;;;;;;;;4953382;28;20171;-87
2023/05/03 02:10:54;;;;;;;9.73;2.70;;;;;;;;;;4954665;28;20051;-86
2023/05/03 02:13:20;;;;;;;7.45;2.92;;;;;;;;;;4940385;28;20059;-86
2023/05/03 02:15:47;;;;;;;10.75;2.65;;;;;;;;;;4974170;28;20459;-85
2023/05/03 02:18:15;;;;;;;7.20;2.70;;;;;;;;;;4954539;28;20055;-85
2023/05/03 02:20:47;;;;;;;9.07;2.70;;;;;;;;;;4936346;28;20134;-87
2023/05/03 02:23:14;;;;;;;9.93;2.90;;;;;;;;;;4951677;28;20075;-84
2023/05/03 02:25:41;;;;;;;7.20;2.10;;;;;;;;;;4944062;28;20502;-85
2023/05/03 02:28:08;;;;;;;6.93;2.90;;;;;;;;;;4950489;28;20052;-86
2023/05/03 02:30:34;;;;;;;7.15;2.65;;;;;;;;;;4966360;28;20047;-86
2023/05/03 02:33:01;;;;;;;9.85;2.70;;;;;;;;;;4936149;28;20055;-86
2023/05/03 02:35:29;;;;;;;10.38;2.88;;;;;;;;;;4953812;28;20035;-88
2023/05/03 02:37:56;;;;;;;6.75;2.70;;;;;;;;;;4953475;28;20067;-86
2023/05/03 02:40:22;;;;;;;9.93;2.85;;;;;;;;;;4936891;28;20039;-87
2023/05/03 02:42:50;;;;;;;13.88;2.95;;;;;;;;;;4968147;28;20110;-86
2023/05/03 02:45:23;;;;;;;10.48;3.08;;;;;;;;;;4966993;28;20046;-85
2023/05/03 02:47:49;;;;;;;8.38;2.85;;;;;;;;;;4973058;28;20058;-87
2023/05/03 02:50:17;;;;;;;10.00;3.13;;;;;;;;;;4959902;28;20051;-86
2023/05/03 02:52:45;;;;;;;5.55;2.53;;;;;;;;;;4980529;28;20058;-87
2023/05/03 02:55:11;;;;;;;11.90;3.17;;;;;;;;;;4964400;28;20078;-86
2023/05/03 02:57:43;;;;;;;8.52;3.13;;;;;;;;;;4938566;28;20130;-87
2023/05/03 03:00:14;;;;;;;9.07;3.45;;;;;;;;;;4959360;28;20043;-87
2023/05/03 03:02:41;;;;;;;23.92;3.25;;;;;;;;;;4954446;28;20090;-87
2023/05/03 03:05:09;;;;;;;10.55;3.08;;;;;;;;;;4943247;28;20047;-85
2023/05/03 03:07:36;;;;;;;11.98;3.90;;;;;;;;;;4955011;28;20130;-86
2023/05/03 03:10:04;;;;;;;8.93;3.50;;;;;;;;;;4938294;28;20054;-85
2023/05/03 03:12:32;;;;;;;14.13;3.53;;;;;;;;;;4957830;28;20047;-87
2023/05/03 03:14:59;;;;;;;9.23;3.70;;;;;;;;;;4973897;28;20055;-87
2023/05/03 03:17:30;;;;;;;8.77;3.47;;;;;;;;;;4979728;28;20111;-86
2023/05/03 03:20:00;;;;;;;14.15;3.25;;;;;;;;;;4945807;28;20051;-87
2023/05/03 03:22:28;;;;;;;17.40;3.60;;;;;;;;;;4953915;28;20039;-86
2023/05/03 03:24:55;;;;;;;10.82;3.67;;;;;;;;;;4948456;28;20039;-87
2023/05/03 03:27:22;;;;;;;6.50;3.83;;;;;;;;;;4959640;28;20058;-86
2023/05/03 03:29:49;;;;;;;12.07;3.58;;;;;;;;;;4956524;28;20111;-87
2023/05/03 03:32:16;;;;;;;13.45;4.18;;;;;;;;;;4971142;28;20134;-86
2023/05/03 03:34:44;;;;;;;12.95;3.92;;;;;;;;;;4968221;28;20047;-85
2023/05/03 03:37:10;;;;;;;9.63;3.78;;;;;;;;;;4948374;28;20047;-86
2023/05/03 03:39:40;;;;;;;9.80;3.92;;;;;;;;;;4936759;28;20055;-87
2023/05/03 03:42:07;;;;;;;13.20;4.25;;;;;;;;;;4936917;28;20122;-86
2023/05/03 03:44:37;;;;;;;8.32;3.92;;;;;;;;;;4937237;28;20497;-87
2023/05/03 03:47:04;;;;;;;7.28;3.97;;;;;;;;;;4936701;28;20043;-85
2023/05/03 03:49:31;;;;;;;11.40;3.72;;;;;;;;;;4937809;29;20575;-85
2023/05/03 03:51:59;;;;;;;9.13;3.88;;;;;;;;;;4937925;28;20115;-86
2023/05/03 03:54:26;;;;;;;10.15;3.63;;;;;;;;;;4938042;28;20071;-86
2023/05/03 03:56:53;;;;;;;12.45;3.53;;;;;;;;;;4938431;28;20043;-87
2023/05/03 03:59:23;;;;;;;10.63;3.30;;;;;;;;;;4942092;28;20040;-87
2023/05/03 04:01:50;;;;;;;12.60;3.78;;;;;;;;;;4946011;28;20044;-86
2023/05/03 04:04:17;;;;;;;10.95;3.67;;;;;;;;;;4946954;28;20039;-87
2023/05/03 04:06:44;;;;;;;6.50;3.38;;;;;;;;;;4940914;28;20567;-88
2023/05/03 04:09:15;;;;;;;13.77;3.65;;;;;;;;;;4940716;28;20043;-88
2023/05/03 04:11:45;;;;;;;8.00;3.25;;;;;;;;;;4942351;28;20044;-88
2023/05/03 04:14:12;;;;;;;10.85;3.50;;;;;;;;;;4926485;28;20052;-90
2023/05/03 04:16:40;;;;;;;6.45;2.90;;;;;;;;;;4964914;28;20044;-88
2023/05/03 04:19:07;;;;;;;10.55;3.33;;;;;;;;;;4945769;29;20059;-88
2023/05/03 04:21:37;;;;;;;9.55;2.97;;;;;;;;;;4941044;28;20055;-88
2023/05/03 04:24:05;;;;;;;8.55;2.65;;;;;;;;;;4949644;28;20490;-87
2023/05/03 04:26:32;;;;;;;11.40;3.17;;;;;;;;;;4959486;28;20065;-87
2023/05/03 04:29:06;;;;;;;9.23;2.90;;;;;;;;;;4942034;28;20055;-87
2023/05/03 04:31:34;;;;;;;7.50;2.83;;;;;;;;;;4958149;28;20040;-89
2023/05/03 04:34:01;;;;;;;13.13;3.35;;;;;;;;;;4957096;28;20055;-88
2023/05/03 04:36:28;;;;;;;8.10;2.78;;;;;;;;;;4961104;28;20039;-88
2023/05/03 04:38:56;;;;;;;6.55;2.70;;;;;;;;;;4953754;28;20058;-86
2023/05/03 04:41:23;;;;;;;12.52;2.63;;;;;;;;;;4966756;28;20188;-87
2023/05/03 04:43:51;;;;;;;7.10;3.10;;;;;;;;;;4956981;28;20047;-86
2023/05/03 04:46:18;;;;;;;7.93;3.17;;;;;;;;;;4941464;28;20125;-87
2023/05/03 04:48:45;;;;;;;8.27;2.90;;;;;;;;;;4956490;28;20074;-86
2023/05/03 04:51:12;;;;;;;13.07;3.20;;;;;;;;;;4956396;28;20295;-86
2023/05/03 04:53:41;;;;;;;5.93;2.97;;;;;;;;;;4957829;28;20044;-88
2023/05/03 04:56:12;;;;;;;9.48;3.72;;;;;;;;;;4975450;28;20050;-90
2023/05/03 04:58:40;;;;;;;10.63;3.80;;;;;;;;;;4967036;28;20111;-88
2023/05/03 05:01:07;;;;;;;10.82;4.28;;;;;;;;;;4961466;28;20507;-90
2023/05/03 05:03:33;;;;;;;14.57;3.75;;;;;;;;;;4954548;28;20039;-89
2023/05/03 05:06:08;;;;;;;13.73;3.50;;;;;;;;;;4953767;28;20039;-88
2023/05/03 05:08:37;;;;;;;11.73;3.55;;;;;;;;;;4953755;28;20131;-86
2023/05/03 05:11:06;;;;;;;11.50;3.67;;;;;;;;;;4953303;28;20043;-87
2023/05/03 05:13:34;;;;;;;12.88;3.75;;;;;;;;;;4955037;28;20047;-87
2023/05/03 05:16:00;;;;;;;15.15;3.13;;;;;;;;;;4949014;28;20074;-84
2023/05/03 05:18:27;;;;;;;9.27;3.15;;;;;;;;;;4947074;28;20107;-88
2023/05/03 05:20:55;;;;;;;11.07;3.13;;;;;;;;;;4955457;28;20043;-88
2023/05/03 05:23:22;;;;;;;11.88;3.25;;;;;;;;;;4945881;29;20050;-88
2023/05/03 05:25:49;;;;;;;8.18;2.78;;;;;;;;;;4949607;28;20451;-89
2023/05/03 05:28:16;;;;;;;7.80;2.92;;;;;;;;;;4962431;28;20058;-89
2023/05/03 05:30:44;;;;;;;6.95;2.60;;;;;;;;;;4929888;29;20046;-88
2023/05/03 05:33:10;;;;;;;5.55;2.55;;;;;;;;;;4938572;28;20122;-85
2023/05/03 05:35:37;;;;;;;9.43;3.03;;;;;;;;;;4943054;28;20123;-88
2023/05/03 05:38:04;;;;;;;10.43;3.00;;;;;;;;;;4918967;28;20560;-88
2023/05/03 05:40:32;;;;;;;7.35;2.42;;;;;;;;;;4934176;28;20518;-87
2023/05/03 05:43:00;;;;;;;10.75;3.35;;;;;;;;;;4920352;28;20403;-86
2023/05/03 05:45:29;;;;;;;6.68;2.42;;;;;;;;;;4918975;28;20119;-85
2023/05/03 05:47:56;;;;;;;5.53;2.67;;;;;;;;;;4920674;28;20504;-88
2023/05/03 05:50:24;;;;;;;11.05;2.75;;;;;;;;;;4953008;28;20090;-87
2023/05/03 05:52:58;;;;;;;11.03;3.13;;;;;;;;;;4953381;28;20047;-87
2023/05/03 05:55:28;;;;;;;6.90;2.55;;;;;;;;;;4938504;28;20067;-87
2023/05/03 05:57:57;;;;;;;6.95;2.72;;;;;;;;;;4960326;28;20058;-86
2023/05/03 06:00:31;;;;;;;9.95;2.75;;;;;;;;;;4955577;28;20075;-85
2023/05/03 06:02:58;;;;;;;8.98;3.08;;;;;;;;;;4955728;28;20456;-85
2023/05/03 06:05:28;;;;;;;7.45;2.97;;;;;;;;;;4954652;28;20043;-88
2023/05/03 06:07:56;;;;;;;13.18;2.88;;;;;;;;;;4940024;28;20062;-88
2023/05/03 06:10:22;;;;;;;8.95;2.90;;;;;;;;;;4953976;28;20098;-85
2023/05/03 06:12:51;;;;;;;5.57;2.50;;;;;;;;;;4939518;28;20043;-86
2023/05/03 06:15:22;;;;;;;10.18;2.53;;;;;;;;;;4955539;28;20047;-87
2023/05/03 06:17:49;;;;;;;10.85;2.88;;;;;;;;;;4953912;29;20071;-89
2023/05/03 06:20:17;;;;;;;8.05;2.88;;;;;;;;;;4952099;28;20046;-88
2023/05/03 06:22:45;;;;;;;8.35;2.65;;;;;;;;;;4937847;28;20043;-84
2023/05/03 06:25:15;;;;;;;8.05;2.55;;;;;;;;;;4957031;28;20507;-88
2023/05/03 06:27:46;;;;;;;7.80;2.60;;;;;;;;;;4953007;28;20504;-88
2023/05/03 06:30:15;;;;;;;11.27;2.78;;;;;;;;;;4963782;28;20565;-89
2023/05/03 06:32:46;;;;;;;9.63;2.45;;;;;;;;;;4952508;28;20062;-89
2023/05/03 06:35:13;;;;;;;7.72;2.90;;;;;;;;;;4938473;28;20068;-87
2023/05/03 06:37:39;;;;;;;11.60;3.80;;;;;;;;;;4936848;28;20115;-89
2023/05/03 06:40:06;;;;;;;6.25;2.63;;;;;;;;;;4922624;28;20114;-88
2023/05/03 06:42:35;;;;;;;6.78;2.58;;;;;;;;;;4946472;28;20103;-86
2023/05/03 06:45:14;;;;;;;12.13;2.80;;;;;;;;;;4952613;28;20092;-87
2023/05/03 06:47:41;;;;;;;7.88;3.13;;;;;;;;;;4937311;29;20112;-85
2023/05/03 06:50:09;;;;;;;8.00;2.83;;;;;;;;;;4936440;29;20066;-86
2023/05/03 06:52:36;;;;;;;12.45;3.00;;;;;;;;;;4935962;29;20161;-89
2023/05/03 06:55:03;;;;;;;11.88;3.03;;;;;;;;;;4951660;29;20405;-86
2023/05/03 06:57:31;;;;;;;11.80;2.95;;;;;;;;;;4942866;29;20054;-88
2023/05/03 06:59:57;;;;;;;9.82;2.60;;;;;;;;;;4955639;28;20043;-88
2023/05/03 07:02:25;;;;;;;10.32;2.50;;;;;;;;;;4940803;29;20111;-89
2023/05/03 07:04:52;;;;;;;10.73;2.83;;;;;;;;;;4956660;28;20445;-88
2023/05/03 07:07:19;;;;;;;5.63;2.60;;;;;;;;;;4939158;29;20043;-89
2023/05/03 07:09:46;;;;;;;6.88;2.70;;;;;;;;;;4937095;29;20046;-86
2023/05/03 07:12:13;;;;;;;9.23;2.40;;;;;;;;;;4940320;29;20054;-87
2023/05/03 07:14:40;;;;;;;7.78;2.72;;;;;;;;;;4936176;29;20048;-87
2023/05/03 07:17:07;;;;;;;10.27;2.85;;;;;;;;;;4934502;29;20063;-87
2023/05/03 07:19:34;;;;;;;8.07;2.65;;;;;;;;;;4949388;29;20095;-86
2023/05/03 07:22:02;;;;;;;7.60;2.67;;;;;;;;;;4934878;29;20111;-88
2023/05/03 07:24:29;;;;;;;6.07;2.25;;;;;;;;;;4957235;28;20051;-85
2023/05/03 07:26:55;;;;;;;10.63;3.05;;;;;;;;;;4922206;29;20135;-88
2023/05/03 07:29:23;;;;;;;6.60;2.67;;;;;;;;;;4950944;28;20103;-88
2023/05/03 07:31:49;;;;;;;5.70;2.58;;;;;;;;;;4935170;28;20062;-87
2023/05/03 07:34:19;;;;;;;8.48;2.60;;;;;;;;;;4954244;28;20564;-88
2023/05/03 07:36:48;;;;;;;10.52;2.72;;;;;;;;;;4940727;28;20059;-88
2023/05/03 07:39:16;;;;;;;8.00;2.70;;;;;;;;;;4941544;28;20055;-89
2023/05/03 07:41:42;;;;;;;6.88;2.72;;;;;;;;;;4942057;28;20047;-87
2023/05/03 07:44:09;;;;;;;12.40;2.55;;;;;;;;;;4929501;28;20040;-86
2023/05/03 07:46:36;;;;;;;7.20;2.60;;;;;;;;;;4947151;28;20070;-88
2023/05/03 07:49:03;;;;;;;7.43;2.70;;;;;;;;;;4953938;28;20048;-88
2023/05/03 07:51:34;;;;;;;7.85;2.92;;;;;;;;;;4936007;29;20508;-88
2023/05/03 07:54:01;;;;;;;8.75;2.97;;;;;;;;;;4937801;28;20057;-86
2023/05/03 07:56:31;;;;;;;9.40;3.20;;;;;;;;;;4941475;29;20036;-86
2023/05/03 07:58:59;;;;;;;8.00;2.80;;;;;;;;;;4941689;28;20051;-87
2023/05/03 08:01:36;;;;;;;9.40;2.90;;;;;;;;;;4954877;28;20512;-88
2023/05/03 08:04:03;;;;;;;7.55;2.95;;;;;;;;;;4922014;29;20381;-89
2023/05/03 08:06:30;;;;;;;7.18;2.85;;;;;;;;;;4952945;28;20058;-88
2023/05/03 08:08:57;;;;;;;7.32;3.00;;;;;;;;;;4938099;28;20099;-88
2023/05/03 08:11:25;;;;;;;8.05;3.13;;;;;;;;;;4921064;28;20122;-89
2023/05/03 08:13:52;;;;;;;7.93;2.88;;;;;;;;;;4936721;28;20047;-88
2023/05/03 08:16:19;;;;;;;10.00;2.90;;;;;;;;;;4938025;28;20506;-87
2023/05/03 08:18:46;;;;;;;8.45;2.90;;;;;;;;;;4937849;28;20442;-89
2023/05/03 08:21:13;;;;;;;8.38;2.95;;;;;;;;;;4954059;28;20044;-87
2023/05/03 08:23:41;;;;;;;8.18;2.90;;;;;;;;;;4926465;29;20066;-86
2023/05/03 08:26:08;;;;;;;6.93;2.80;;;;;;;;;;4959087;28;20098;-86
2023/05/03 08:28:36;;;;;;;7.88;3.25;;;;;;;;;;4941276;28;20078;-85
2023/05/03 08:31:04;;;;;;;8.05;2.90;;;;;;;;;;4941635;29;20040;-88
2023/05/03 08:33:30;;;;;;;5.15;2.70;;;;;;;;;;4925303;29;20043;-87
2023/05/03 08:35:57;;;;;;;6.10;2.55;;;;;;;;;;4941552;29;20076;-88
2023/05/03 08:38:24;;;;;;;7.70;3.03;;;;;;;;;;4941315;29;20063;-87
2023/05/03 08:40:54;;;;;;;7.00;3.00;;;;;;;;;;4940944;29;20059;-86
2023/05/03 08:43:22;;;;;;;8.02;2.95;;;;;;;;;;4941917;29;20047;-87
2023/05/03 08:45:50;;;;;;;8.13;2.80;;;;;;;;;;4926052;29;20050;-87
2023/05/03 08:48:17;;;;;;;12.27;3.40;;;;;;;;;;4941323;29;20067;-87
2023/05/03 08:50:44;;;;;;;7.15;2.90;;;;;;;;;;4936444;29;20102;-85
2023/05/03 08:53:10;;;;;;;8.23;3.25;;;;;;;;;;4919654;29;20047;-86
2023/05/03 08:55:37;;;;;;;11.13;3.05;;;;;;;;;;4946467;29;20072;-84
2023/05/03 08:58:11;;;;;;;7.05;3.40;;;;;;;;;;4939411;29;20063;-85
2023/05/03 09:00:40;;;;;;;9.75;3.03;;;;;;;;;;4938800;29;20428;-85
2023/05/03 09:03:07;;;;;;;8.02;3.33;;;;;;;;;;4944775;29;20073;-88
2023/05/03 09:05:34;;;;;;;10.23;2.67;;;;;;;;;;4940414;28;20076;-86
2023/05/03 09:08:02;;;;;;;8.95;3.03;;;;;;;;;;4920756;29;20146;-87
2023/05/03 09:10:29;;;;;;;10.10;3.10;;;;;;;;;;4933084;29;20072;-87
2023/05/03 09:12:57;;;;;;;8.02;2.70;;;;;;;;;;4937473;29;20048;-88
2023/05/03 09:15:25;;;;;;;5.90;2.70;;;;;;;;;;4942211;28;20050;-86
2023/05/03 09:18:09;;;;;;;5.93;2.92;;;;;;;;;;4943933;29;20052;-86
2023/05/03 09:20:37;;;;;;;7.47;2.67;;;;;;;;;;4947237;29;20159;-87
2023/05/03 09:23:03;;;;;;;5.40;2.72;;;;;;;;;;4948064;28;20055;-86
2023/05/03 09:25:43;;;;;;;7.80;2.90;;;;;;;;;;4965415;28;20079;-87
2023/05/03 09:28:10;;;;;;;6.35;2.53;;;;;;;;;;4943864;29;20048;-87
2023/05/03 09:30:37;;;;;;;7.35;2.60;;;;;;;;;;4946010;28;20048;-86
2023/05/03 09:33:05;;;;;;;7.10;2.85;;;;;;;;;;4960348;28;20048;-83
2023/05/03 09:35:31;;;;;;;7.80;3.13;;;;;;;;;;4935652;28;20070;-86
2023/05/03 09:37:59;;;;;;;8.70;2.78;;;;;;;;;;4937394;28;20063;-85
2023/05/03 09:40:27;;;;;;;7.97;3.22;;;;;;;;;;4953750;28;20051;-86
2023/05/03 09:43:05;;;;;;;6.45;3.13;;;;;;;;;;4940079;28;20425;-85
2023/05/03 09:45:33;;;;;;;8.80;2.58;;;;;;;;;;4939068;28;20515;-86
2023/05/03 09:48:01;;;;;;;5.93;2.90;;;;;;;;;;4954605;28;20048;-86
2023/05/03 09:50:28;;;;;;;6.82;2.95;;;;;;;;;;4955924;28;20163;-87
2023/05/03 09:52:56;;;;;;;8.27;2.70;;;;;;;;;;4957725;28;20051;-86
2023/05/03 09:55:23;;;;;;;5.45;2.25;;;;;;;;;;4957946;28;20048;-87
2023/05/03 09:57:50;;;;;;;6.57;2.60;;;;;;;;;;4941647;28;20103;-87
2023/05/03 10:00:19;;;;;;;5.35;2.80;;;;;;;;;;4940400;28;20062;-86
2023/05/03 10:02:48;;;;;;;10.18;2.65;;;;;;;;;;4928102;28;20127;-86
2023/05/03 10:05:15;;;;;;;6.90;2.28;;;;;;;;;;4953160;28;20051;-86
2023/05/03 10:07:44;;;;;;;5.97;2.10;;;;;;;;;;4932794;29;20047;-86
2023/05/03 10:10:11;;;;;;;6.05;2.67;;;;;;;;;;4917549;29;20097;-86
2023/05/03 10:12:38;;;;;;;8.60;2.22;;;;;;;;;;4941764;28;20047;-86
2023/05/03 10:15:06;;;;;;;4.60;2.10;;;;;;;;;;4935709;28;20047;-86
2023/05/03 10:17:36;;;;;;;10.25;2.45;;;;;;;;;;4937410;28;20047;-87
2023/05/03 10:20:14;;;;;;;5.60;1.88;;;;;;;;;;4937509;29;20088;-85
2023/05/03 10:23:00;;;;;;;8.95;2.03;;;;;;;;;;4948423;28;20043;-86
2023/05/03 10:25:26;;;;;;;6.32;2.47;;;;;;;;;;4948528;28;20521;-86
2023/05/03 10:27:53;;;;;;;4.57;2.03;;;;;;;;;;4938280;28;20520;-86
2023/05/03 10:30:25;;;;;;;6.60;2.03;;;;;;;;;;4937917;29;20203;-87
2023/05/03 10:32:52;;;;;;;6.55;1.85;;;;;;;;;;4955231;29;20054;-86
2023/05/03 10:35:18;;;;;;;5.45;2.13;;;;;;;;;;4940953;29;20051;-85
2023/05/03 10:37:47;;;;;;;9.85;2.22;;;;;;;;;;4938368;29;20055;-86
2023/05/03 10:40:15;;;;;;;4.35;1.90;;;;;;;;;;4923528;29;20464;-87
2023/05/03 10:42:43;;;;;;;9.13;2.28;;;;;;;;;;4924083;29;20502;-86
2023/05/03 10:45:19;;;;;;;8.23;1.70;;;;;;;;;;4929866;29;20055;-85
2023/05/03 10:48:06;;;;;;;6.50;2.33;;;;;;;;;;4973836;28;20058;-86
2023/05/03 10:50:33;;;;;;;4.93;1.73;;;;;;;;;;4952352;28;20088;-87
2023/05/03 10:52:59;;;;;;;6.22;1.98;;;;;;;;;;4961493;28;20035;-88
2023/05/03 10:55:26;;;;;;;5.65;2.20;;;;;;;;;;4960253;28;20043;-88
2023/05/03 10:57:54;;;;;;;10.95;2.10;;;;;;;;;;4945175;28;20052;-88
2023/05/03 11:00:37;;;;;;;7.00;1.90;;;;;;;;;;4943008;28;20046;-87
2023/05/03 11:03:08;;;;;;;5.28;1.88;;;;;;;;;;4935789;28;20047;-88
2023/05/03 11:05:35;;;;;;;5.10;2.05;;;;;;;;;;4950612;28;20419;-87
2023/05/03 11:08:06;;;;;;;5.10;2.03;;;;;;;;;;4932271;28;20044;-85
2023/05/03 11:10:33;;;;;;;7.50;2.20;;;;;;;;;;4933811;28;20056;-86
2023/05/03 11:12:59;;;;;;;3.80;1.80;;;;;;;;;;4960064;28;20055;-87
2023/05/03 11:15:26;;;;;;;3.80;1.80;;;;;;;;;;4965289;28;20067;-87
2023/05/03 11:17:53;;;;;;;6.18;1.83;;;;;;;;;;4964764;28;20066;-84
2023/05/03 11:20:20;;;;;;;4.57;1.58;;;;;;;;;;4949207;29;20131;-88
2023/05/03 11:22:46;;;;;;;5.55;2.22;;;;;;;;;;4965968;28;20047;-87
2023/05/03 11:25:14;;;;;;;4.90;1.83;;;;;;;;;;4947405;28;20098;-88
2023/05/03 11:27:41;;;;;;;5.90;1.90;;;;;;;;;;4960759;28;20047;-88
2023/05/03 11:30:08;;;;;;;4.78;1.63;;;;;;;;;;4959189;28;20142;-85
2023/05/03 11:32:35;;;;;;;4.72;1.67;;;;;;;;;;4945623;28;20047;-87
2023/05/03 11:35:04;;;;;;;5.90;2.03;;;;;;;;;;4964900;28;20070;-86
2023/05/03 11:37:31;;;;;;;7.13;2.00;;;;;;;;;;4966124;28;20043;-87
2023/05/03 11:40:01;;;;;;;7.72;1.77;;;;;;;;;;4949095;28;20048;-87
2023/05/03 11:42:28;;;;;;;5.40;2.00;;;;;;;;;;4948063;28;20043;-86
2023/05/03 11:44:55;;;;;;;6.95;1.80;;;;;;;;;;4964282;28;20537;-88
2023/05/03 11:47:22;;;;;;;3.95;1.85;;;;;;;;;;4959565;28;20039;-88
2023/05/03 11:49:52;;;;;;;5.63;2.17;;;;;;;;;;4960866;28;20062;-87
2023/05/03 11:52:21;;;;;;;6.05;2.13;;;;;;;;;;4964113;28;20074;-88
2023/05/03 11:54:47;;;;;;;6.60;1.65;;;;;;;;;;4938304;28;20511;-88
2023/05/03 11:57:15;;;;;;;5.05;2.05;;;;;;;;;;4939526;28;20073;-87
2023/05/03 11:59:43;;;;;;;8.27;1.75;;;;;;;;;;4954772;28;20043;-86
2023/05/03 12:02:11;;;;;;;5.00;2.15;;;;;;;;;;4951068;28;20051;-87
2023/05/03 12:04:40;;;;;;;3.20;1.80;;;;;;;;;;4941727;28;20039;-87
2023/05/03 12:07:08;;;;;;;6.45;1.73;;;;;;;;;;4957918;28;20057;-88
2023/05/03 12:09:36;;;;;;;9.02;1.77;;;;;;;;;;4959141;28;20102;-87
2023/05/03 12:12:04;;;;;;;8.70;2.00;;;;;;;;;;4974536;28;20507;-87
2023/05/03 12:14:53;;;;;;;5.22;1.80;;;;;;;;;;4961782;28;20047;-85
2023/05/03 12:17:20;;;;;;;;;;;;;;;;;;4974898;28;20039;-86
2023/05/03 12:19:47;;;;;;;10.68;2.10;;;;;;;;;;4974160;28;19938;-87
2023/05/03 12:22:23;;;;;;;7.78;2.10;;;;;;;;;;4943247;28;20071;-86
2023/05/03 12:24:52;;;;;;;7.80;2.40;;;;;;;;;;4942997;28;20047;-89
2023/05/03 12:27:19;;;;;;;6.32;2.03;;;;;;;;;;4939937;28;20128;-87
2023/05/03 12:29:49;;;;;;;4.07;2.00;;;;;;;;;;4940393;28;20044;-87
2023/05/03 12:32:17;;;;;;;6.80;2.15;;;;;;;;;;4940652;28;20075;-86
2023/05/03 12:34:44;;;;;;;5.90;2.50;;;;;;;;;;4940376;28;20058;-87
2023/05/03 12:37:12;;;;;;;6.10;2.30;;;;;;;;;;4942616;28;20114;-87
2023/05/03 12:39:43;;;;;;;5.32;2.15;;;;;;;;;;4942713;28;20047;-85
2023/05/03 12:42:17;;;;;;;9.27;2.40;;;;;;;;;;4960982;28;20110;-87
2023/05/03 12:44:47;;;;;;;8.35;1.98;;;;;;;;;;4962398;28;20053;-85
2023/05/03 12:47:18;;;;;;;3.95;1.98;;;;;;;;;;4954521;28;20044;-87
2023/05/03 12:49:53;;;;;;;8.05;2.28;;;;;;;;;;4950067;28;20068;-87
2023/05/03 12:52:25;;;;;;;6.43;2.15;;;;;;;;;;4942461;28;20047;-90
2023/05/03 12:54:54;;;;;;;4.90;2.00;;;;;;;;;;4961066;28;20417;-87
2023/05/03 12:57:22;;;;;;;5.72;1.90;;;;;;;;;;4949502;28;20467;-86
2023/05/03 12:59:52;;;;;;;6.20;1.80;;;;;;;;;;4935358;28;20060;-86
2023/05/03 13:02:27;;;;;;;5.05;2.20;;;;;;;;;;4950639;28;20415;-85
2023/05/03 13:04:57;;;;;;;4.68;2.10;;;;;;;;;;4943435;28;20055;-84
2023/05/03 13:07:27;;;;;;;4.50;1.80;;;;;;;;;;4936306;28;20153;-85
2023/05/03 13:09:57;;;;;;;5.70;1.95;;;;;;;;;;4962477;28;20058;-87
2023/05/03 13:12:26;;;;;;;5.82;1.80;;;;;;;;;;4952046;28;20071;-87
2023/05/03 13:14:54;;;;;;;7.10;2.30;;;;;;;;;;4960011;28;20047;-89
2023/05/03 13:17:21;;;;;;;5.60;2.00;;;;;;;;;;4944607;28;20082;-86
2023/05/03 13:19:49;;;;;;;8.23;2.28;;;;;;;;;;4949624;28;20047;-85
2023/05/03 13:22:17;;;;;;;4.75;1.63;;;;;;;;;;4945693;28;20130;-85
2023/05/03 13:24:45;;;;;;;5.53;1.98;;;;;;;;;;4937399;28;20452;-83
2023/05/03 13:27:12;;;;;;;7.35;2.00;;;;;;;;;;4954582;28;20243;-85
2023/05/03 13:29:39;;;;;;;6.75;1.90;;;;;;;;;;4940376;28;20040;-84
2023/05/03 13:32:06;;;;;;;6.78;1.75;;;;;;;;;;4935630;28;20075;-87
2023/05/03 13:34:34;;;;;;;4.65;2.03;;;;;;;;;;4935172;28;20054;-86
2023/05/03 13:37:00;;;;;;;5.20;2.30;;;;;;;;;;4951560;28;20437;-88
2023/05/03 13:39:27;;;;;;;6.07;2.03;;;;;;;;;;4950218;28;20052;-88
2023/05/03 13:41:56;;;;;;;7.28;2.20;;;;;;;;;;4939998;28;20051;-86
2023/05/03 13:44:26;;;;;;;5.32;2.00;;;;;;;;;;4934597;28;20054;-87
2023/05/03 13:46:53;;;;;;;7.10;2.15;;;;;;;;;;4917553;28;20051;-87
2023/05/03 13:49:19;;;;;;;5.90;2.00;;;;;;;;;;4917613;28;20050;-88
2023/05/03 13:51:47;;;;;;;5.13;1.83;;;;;;;;;;4937598;28;20080;-88
2023/05/03 13:54:13;;;;;;;4.45;2.10;;;;;;;;;;4954971;28;20408;-87
2023/05/03 13:56:41;;;;;;;8.93;2.00;;;;;;;;;;4956187;28;20097;-88
2023/05/03 13:59:10;;;;;;;3.03;1.90;;;;;;;;;;4957781;28;20500;-88
2023/05/03 14:01:37;;;;;;;6.15;1.80;;;;;;;;;;4953628;28;20355;-88
2023/05/03 14:04:04;;;;;;;9.63;2.20;;;;;;;;;;4954481;28;20114;-88
2023/05/03 14:06:31;;;;;;;6.25;2.00;;;;;;;;;;4937869;28;20043;-88
2023/05/03 14:09:00;;;;;;;7.95;2.25;;;;;;;;;;4942333;28;20251;-87
2023/05/03 14:11:28;;;;;;;6.63;2.38;;;;;;;;;;4956973;28;20074;-88
2023/05/03 14:13:55;;;;;;;7.25;2.25;;;;;;;;;;4953263;28;20102;-89
2023/05/03 14:16:25;;;;;;;7.35;2.60;;;;;;;;;;4938016;28;20520;-88
2023/05/03 14:18:54;;;;;;;8.38;2.33;;;;;;;;;;4954136;28;20114;-88
2023/05/03 14:21:21;;;;;;;6.55;2.15;;;;;;;;;;4961292;28;20174;-89
2023/05/03 14:23:51;;;;;;;7.07;2.28;;;;;;;;;;4942009;29;20043;-87
2023/05/03 14:26:19;;;;;;;7.90;2.33;;;;;;;;;;4957758;28;20054;-88
2023/05/03 14:28:45;;;;;;;5.63;1.80;;;;;;;;;;4942836;28;20098;-87
2023/05/03 14:31:12;;;;;;;4.45;2.10;;;;;;;;;;4937714;28;20048;-88
2023/05/03 14:33:39;;;;;;;5.20;2.08;;;;;;;;;;4922469;29;20048;-87
2023/05/03 14:36:07;;;;;;;9.93;2.00;;;;;;;;;;4934262;28;20051;-88
2023/05/03 14:38:34;;;;;;;5.75;2.13;;;;;;;;;;4935156;28;20051;-87
2023/05/03 14:41:01;;;;;;;4.43;1.92;;;;;;;;;;4937048;28;20072;-87
2023/05/03 14:43:28;;;;;;;4.65;2.00;;;;;;;;;;4938612;28;20127;-88
2023/05/03 14:45:55;;;;;;;5.53;2.25;;;;;;;;;;4934945;28;20087;-90
2023/05/03 14:48:22;;;;;;;7.22;2.38;;;;;;;;;;4951683;28;20059;-90